createdAt,value
2022-10-24T00:00:12.989Z,1004.36
2022-10-24T00:01:13.056Z,1004.44
2022-10-24T00:02:12.960Z,1004.47
2022-10-24T00:03:13.016Z,1004.43
2022-10-24T00:04:13.994Z,1004.41
2022-10-24T00:05:14.512Z,1004.46
2022-10-24T00:06:13.494Z,1004.52
2022-10-24T00:07:13.509Z,1004.54
2022-10-24T00:08:12.901Z,1004.62
2022-10-24T00:09:15.497Z,1004.67
2022-10-24T00:10:14.995Z,1004.65
2022-10-24T00:11:14.106Z,1004.61
2022-10-24T00:12:13.679Z,1004.57
2022-10-24T00:13:14.499Z,1004.58
2022-10-24T00:14:13.606Z,1004.57
2022-10-24T00:15:12.845Z,1004.55
2022-10-24T00:16:14.516Z,1004.59
2022-10-24T00:17:13.527Z,1004.59
2022-10-24T00:18:13.547Z,1004.66
2022-10-24T00:19:14.999Z,1004.72
2022-10-24T00:20:13.510Z,1004.72
2022-10-24T00:21:15.514Z,1004.69
2022-10-24T00:22:13.498Z,1004.71
2022-10-24T00:23:13.498Z,1004.68
2022-10-24T00:24:13.614Z,1004.65
2022-10-24T00:25:12.708Z,1004.65
2022-10-24T00:26:13.576Z,1004.59
2022-10-24T00:27:13.514Z,1004.58
2022-10-24T00:28:13.500Z,1004.56
2022-10-24T00:29:12.623Z,1004.58
2022-10-24T00:30:13.654Z,1004.56
2022-10-24T00:31:14.503Z,1004.59
2022-10-24T00:32:14.508Z,1004.53
2022-10-24T00:33:13.501Z,1004.48
2022-10-24T00:34:12.628Z,1004.50
2022-10-24T00:35:14.097Z,1004.43
2022-10-24T00:36:15.019Z,1004.44
2022-10-24T00:37:13.429Z,1004.42
2022-10-24T00:38:13.009Z,1004.33
2022-10-24T00:39:12.488Z,1004.38
2022-10-24T00:40:12.558Z,1004.38
2022-10-24T00:41:13.004Z,1004.40
2022-10-24T00:42:12.496Z,1004.43
2022-10-24T00:43:12.476Z,1004.43
2022-10-24T00:44:12.482Z,1004.42
2022-10-24T00:45:12.490Z,1004.44
2022-10-24T00:46:12.419Z,1004.44
2022-10-24T00:47:12.533Z,1004.46
2022-10-24T00:48:12.408Z,1004.45
2022-10-24T00:49:12.437Z,1004.47
2022-10-24T00:50:12.421Z,1004.46
2022-10-24T00:51:13.005Z,1004.55
2022-10-24T00:52:13.098Z,1004.62
2022-10-24T00:53:14.008Z,1004.61
2022-10-24T00:54:12.405Z,1004.65
2022-10-24T00:55:12.478Z,1004.70
2022-10-24T00:56:12.345Z,1004.69
2022-10-24T00:57:14.008Z,1004.74
2022-10-24T00:58:14.010Z,1004.79
2022-10-24T00:59:13.010Z,1004.74
2022-10-24T01:00:12.332Z,1004.72
2022-10-24T01:01:13.133Z,1004.79
2022-10-24T01:03:14.010Z,1004.85
2022-10-24T01:04:12.227Z,1004.85
2022-10-24T01:05:12.267Z,1004.86
2022-10-24T01:06:12.195Z,1004.84
2022-10-24T01:07:13.512Z,1004.88
2022-10-24T01:08:12.211Z,1004.88
2022-10-24T01:09:14.011Z,1004.84
2022-10-24T01:10:13.524Z,1004.85
2022-10-24T01:11:12.168Z,1004.81
2022-10-24T01:12:15.512Z,1004.83
2022-10-24T01:13:14.513Z,1004.80
2022-10-24T01:14:12.153Z,1004.78
2022-10-24T01:15:13.186Z,1004.77
2022-10-24T01:16:13.515Z,1004.75
2022-10-24T01:17:12.140Z,1004.71
2022-10-24T01:18:14.014Z,1004.73
2022-10-24T01:19:12.090Z,1004.75
2022-10-24T01:20:13.539Z,1004.76
2022-10-24T01:21:12.095Z,1004.79
2022-10-24T01:22:12.582Z,1004.77
2022-10-24T01:23:13.032Z,1004.80
2022-10-24T01:24:14.014Z,1004.76
2022-10-24T01:25:13.514Z,1004.72
2022-10-24T01:26:12.040Z,1004.67
2022-10-24T01:27:12.106Z,1004.62
2022-10-24T01:28:12.048Z,1004.51
2022-10-24T01:29:12.006Z,1004.45
2022-10-24T01:30:11.964Z,1004.37
2022-10-24T01:31:12.517Z,1004.32
2022-10-24T01:32:12.516Z,1004.26
2022-10-24T01:33:12.517Z,1004.28
2022-10-24T01:34:12.555Z,1004.29
2022-10-24T01:35:12.523Z,1004.30
2022-10-24T01:36:11.960Z,1004.35
2022-10-24T01:37:14.560Z,1004.31
2022-10-24T01:38:12.519Z,1004.28
2022-10-24T01:39:14.021Z,1004.32
2022-10-24T01:40:12.600Z,1004.37
2022-10-24T01:41:11.941Z,1004.36
2022-10-24T01:42:11.838Z,1004.41
2022-10-24T01:43:12.621Z,1004.39
2022-10-24T01:44:12.673Z,1004.34
2022-10-24T01:45:13.021Z,1004.32
2022-10-24T01:46:12.642Z,1004.31
2022-10-24T01:47:12.521Z,1004.31
2022-10-24T01:48:11.774Z,1004.37
2022-10-24T01:50:40.024Z,1004.37
2022-10-24T01:50:44.968Z,1004.32
2022-10-24T01:51:46.527Z,1004.26
2022-10-24T01:52:45.111Z,1004.23
2022-10-24T01:53:45.468Z,1004.18
2022-10-24T01:54:47.524Z,1004.11
2022-10-24T01:55:45.522Z,1004.09
2022-10-24T01:56:47.029Z,1004.04
2022-10-24T01:57:46.526Z,1004.02
2022-10-24T01:58:45.527Z,1004.02
2022-10-24T01:59:45.558Z,1003.95
2022-10-24T02:00:44.827Z,1003.93
2022-10-24T02:01:45.590Z,1003.89
2022-10-24T02:02:47.227Z,1003.88
2022-10-24T02:03:46.545Z,1003.87
2022-10-24T02:04:45.531Z,1003.86
2022-10-24T02:05:46.565Z,1003.88
2022-10-24T02:06:44.826Z,1003.88
2022-10-24T02:07:44.766Z,1003.89
2022-10-24T02:08:46.028Z,1003.96
2022-10-24T02:09:45.530Z,1003.96
2022-10-24T02:10:45.527Z,1003.87
2022-10-24T02:11:45.536Z,1003.92
2022-10-24T02:12:44.991Z,1003.96
2022-10-24T02:13:44.696Z,1003.94
2022-10-24T02:14:44.717Z,1003.94
2022-10-24T02:15:45.425Z,1003.90
2022-10-24T02:16:45.531Z,1003.83
2022-10-24T02:17:45.786Z,1003.85
2022-10-24T02:18:44.623Z,1003.84
2022-10-24T02:19:46.552Z,1003.82
2022-10-24T02:20:46.529Z,1003.89
2022-10-24T02:21:44.619Z,1003.90
2022-10-24T02:22:45.139Z,1003.88
2022-10-24T02:23:46.530Z,1003.92
2022-10-24T02:24:45.531Z,1003.94
2022-10-24T02:26:44.551Z,1003.89
2022-10-24T02:27:45.890Z,1003.87
2022-10-24T02:28:45.039Z,1003.86
2022-10-24T02:29:44.537Z,1003.88
2022-10-24T02:30:46.033Z,1003.89
2022-10-24T02:31:44.481Z,1003.88
2022-10-24T02:32:45.037Z,1003.81
2022-10-24T02:33:45.067Z,1003.84
2022-10-24T02:34:44.476Z,1003.86
2022-10-24T02:35:45.548Z,1003.87
2022-10-24T02:36:45.047Z,1003.75
2022-10-24T02:37:45.297Z,1003.75
2022-10-24T02:38:45.039Z,1003.71
2022-10-24T02:39:45.047Z,1003.69
2022-10-24T02:40:46.035Z,1003.71
2022-10-24T02:41:44.411Z,1003.69
2022-10-24T02:42:46.567Z,1003.66
2022-10-24T02:43:46.035Z,1003.66
2022-10-24T02:44:45.535Z,1003.68
2022-10-24T02:45:44.386Z,1003.69
2022-10-24T02:46:45.074Z,1003.61
2022-10-24T02:47:45.497Z,1003.61
2022-10-24T02:48:44.359Z,1003.54
2022-10-24T02:49:45.183Z,1003.55
2022-10-24T02:50:45.013Z,1003.56
2022-10-24T02:51:46.040Z,1003.64
2022-10-24T02:52:44.702Z,1003.66
2022-10-24T02:53:44.312Z,1003.71
2022-10-24T02:54:44.297Z,1003.76
2022-10-24T02:55:45.537Z,1003.80
2022-10-24T02:56:46.038Z,1003.79
2022-10-24T02:57:45.152Z,1003.80
2022-10-24T02:58:45.038Z,1003.78
2022-10-24T02:59:45.540Z,1003.78
2022-10-24T03:00:44.249Z,1003.74
2022-10-24T03:01:45.203Z,1003.74
2022-10-24T03:02:44.479Z,1003.74
2022-10-24T03:03:44.176Z,1003.73
2022-10-24T03:04:45.168Z,1003.71
2022-10-24T03:05:44.186Z,1003.70
2022-10-24T03:06:44.267Z,1003.70
2022-10-24T03:07:44.205Z,1003.69
2022-10-24T03:08:45.548Z,1003.69
2022-10-24T03:09:44.098Z,1003.67
2022-10-24T03:10:44.124Z,1003.63
2022-10-24T03:11:44.206Z,1003.64
2022-10-24T03:12:44.248Z,1003.62
2022-10-24T03:13:45.582Z,1003.67
2022-10-24T03:14:44.073Z,1003.68
2022-10-24T03:15:45.554Z,1003.69
2022-10-24T03:16:44.651Z,1003.74
2022-10-24T03:17:44.747Z,1003.73
2022-10-24T03:18:46.609Z,1003.71
2022-10-24T03:19:44.662Z,1003.70
2022-10-24T03:20:44.544Z,1003.65
2022-10-24T03:21:44.708Z,1003.76
2022-10-24T03:22:43.969Z,1003.72
2022-10-24T03:23:43.972Z,1003.77
2022-10-24T03:24:54.875Z,1003.70
2022-10-24T03:25:44.631Z,1003.73
2022-10-24T03:26:44.547Z,1003.68
2022-10-24T03:27:44.272Z,1003.69
2022-10-24T03:28:43.934Z,1003.66
2022-10-24T03:29:44.553Z,1003.73
2022-10-24T03:30:43.842Z,1003.69
2022-10-24T03:31:44.580Z,1003.67
2022-10-24T03:32:44.233Z,1003.66
2022-10-24T03:33:45.067Z,1003.68
2022-10-24T03:34:44.549Z,1003.68
2022-10-24T03:35:43.858Z,1003.68
2022-10-24T03:36:43.883Z,1003.66
2022-10-24T03:37:44.709Z,1003.69
2022-10-24T03:38:45.550Z,1003.73
2022-10-24T03:39:45.551Z,1003.76
2022-10-24T03:41:43.820Z,1003.74
2022-10-24T03:42:44.110Z,1003.69
2022-10-24T03:43:43.727Z,1003.71
2022-10-24T03:44:43.730Z,1003.72
2022-10-24T03:45:44.550Z,1003.73
2022-10-24T03:46:44.574Z,1003.67
2022-10-24T03:47:45.552Z,1003.71
2022-10-24T03:48:45.557Z,1003.69
2022-10-24T03:49:43.663Z,1003.65
2022-10-24T03:50:44.166Z,1003.66
2022-10-24T03:51:46.054Z,1003.66
2022-10-24T03:52:43.985Z,1003.68
2022-10-24T03:53:43.665Z,1003.65
2022-10-24T03:54:43.596Z,1003.71
2022-10-24T03:55:44.100Z,1003.68
2022-10-24T03:56:43.585Z,1003.68
2022-10-24T03:57:45.368Z,1003.68
2022-10-24T03:58:44.133Z,1003.68
2022-10-24T03:59:45.056Z,1003.72
2022-10-24T04:00:44.086Z,1003.74
2022-10-24T04:01:44.266Z,1003.79
2022-10-24T04:02:44.140Z,1003.81
2022-10-24T04:03:45.056Z,1003.77
2022-10-24T04:04:44.058Z,1003.79
2022-10-24T04:05:43.466Z,1003.80
2022-10-24T04:06:43.471Z,1003.79
2022-10-24T04:07:45.375Z,1003.77
2022-10-24T04:08:45.559Z,1003.76
2022-10-24T04:09:43.400Z,1003.74
2022-10-24T04:10:45.058Z,1003.71
2022-10-24T04:11:44.152Z,1003.75
2022-10-24T04:12:45.057Z,1003.71
2022-10-24T04:13:44.561Z,1003.73
2022-10-24T04:14:44.061Z,1003.72
2022-10-24T04:15:43.327Z,1003.70
2022-10-24T04:16:45.560Z,1003.71
2022-10-24T04:17:44.364Z,1003.70
2022-10-24T04:18:43.357Z,1003.70
2022-10-24T04:19:43.334Z,1003.66
2022-10-24T04:20:45.060Z,1003.68
2022-10-24T04:21:44.066Z,1003.71
2022-10-24T04:22:44.807Z,1003.75
2022-10-24T04:23:43.266Z,1003.69
2022-10-24T04:24:43.275Z,1003.62
2022-10-24T04:25:44.564Z,1003.64
2022-10-24T04:26:45.578Z,1003.66
2022-10-24T04:27:44.102Z,1003.63
2022-10-24T04:28:43.197Z,1003.67
2022-10-24T04:29:43.204Z,1003.67
2022-10-24T04:31:43.188Z,1003.71
2022-10-24T04:32:44.547Z,1003.71
2022-10-24T04:33:43.182Z,1003.69
2022-10-24T04:34:44.066Z,1003.69
2022-10-24T04:35:44.564Z,1003.72
2022-10-24T04:36:44.064Z,1003.70
2022-10-24T04:37:43.157Z,1003.73
2022-10-24T04:38:43.093Z,1003.76
2022-10-24T04:39:43.648Z,1003.78
2022-10-24T04:40:43.074Z,1003.77
2022-10-24T04:41:43.078Z,1003.78
2022-10-24T04:42:44.443Z,1003.69
2022-10-24T04:43:43.627Z,1003.68
2022-10-24T04:44:43.568Z,1003.68
2022-10-24T04:45:43.028Z,1003.69
2022-10-24T04:46:43.012Z,1003.63
2022-10-24T04:47:43.929Z,1003.69
2022-10-24T04:48:43.661Z,1003.70
2022-10-24T04:49:42.946Z,1003.65
2022-10-24T04:50:44.575Z,1003.66
2022-10-24T04:51:44.583Z,1003.64
2022-10-24T04:52:43.580Z,1003.65
2022-10-24T04:53:46.070Z,1003.67
2022-10-24T04:54:44.592Z,1003.76
2022-10-24T04:55:42.913Z,1003.74
2022-10-24T04:56:42.945Z,1003.76
2022-10-24T04:57:44.332Z,1003.76
2022-10-24T04:58:42.910Z,1003.80
2022-10-24T04:59:43.654Z,1003.80
2022-10-24T05:00:42.855Z,1003.83
2022-10-24T05:01:44.697Z,1003.85
2022-10-24T05:02:42.896Z,1003.90
2022-10-24T05:03:44.070Z,1003.92
2022-10-24T05:04:43.585Z,1003.86
2022-10-24T05:05:43.578Z,1003.93
2022-10-24T05:06:45.018Z,1003.95
2022-10-24T05:07:43.097Z,1003.97
2022-10-24T05:08:43.575Z,1003.99
2022-10-24T05:09:42.808Z,1004.01
2022-10-24T05:10:43.574Z,1003.99
2022-10-24T05:11:43.596Z,1004.02
2022-10-24T05:12:43.046Z,1004.02
2022-10-24T05:13:43.591Z,1004.01
2022-10-24T05:14:42.733Z,1004.00
2022-10-24T05:15:44.575Z,1003.97
2022-10-24T05:16:43.585Z,1003.97
2022-10-24T05:17:43.200Z,1003.95
2022-10-24T05:18:43.679Z,1003.92
2022-10-24T05:19:43.583Z,1003.89
2022-10-24T05:20:45.594Z,1003.85
2022-10-24T05:21:43.642Z,1003.89
2022-10-24T05:22:43.786Z,1003.87
2022-10-24T05:23:44.167Z,1003.87
2022-10-24T05:24:42.644Z,1003.91
2022-10-24T05:25:45.100Z,1003.92
2022-10-24T05:26:44.088Z,1003.95
2022-10-24T05:27:42.563Z,1003.98
2022-10-24T05:28:43.179Z,1003.94
2022-10-24T05:29:43.154Z,1003.93
2022-10-24T05:30:42.578Z,1003.92
2022-10-24T05:31:43.083Z,1003.93
2022-10-24T05:32:43.410Z,1003.90
2022-10-24T05:33:43.596Z,1003.87
2022-10-24T05:34:43.138Z,1003.87
2022-10-24T05:35:43.080Z,1003.81
2022-10-24T05:36:43.081Z,1003.81
2022-10-24T05:37:42.428Z,1003.81
2022-10-24T05:38:42.540Z,1003.78
2022-10-24T05:39:43.081Z,1003.81
2022-10-24T05:40:43.080Z,1003.83
2022-10-24T05:41:46.267Z,1003.88
2022-10-24T05:42:42.768Z,1003.85
2022-10-24T05:43:43.083Z,1003.82
2022-10-24T05:44:42.482Z,1003.78
2022-10-24T05:45:42.404Z,1003.71
2022-10-24T05:46:43.081Z,1003.69
2022-10-24T05:47:42.473Z,1003.71
2022-10-24T05:48:44.582Z,1003.65
2022-10-24T05:49:42.370Z,1003.64
2022-10-24T05:50:44.084Z,1003.67
2022-10-24T05:51:42.322Z,1003.65
2022-10-24T05:52:46.245Z,1003.67
2022-10-24T05:53:43.090Z,1003.68
2022-10-24T05:54:55.183Z,1003.70
2022-10-24T05:55:42.247Z,1003.75
2022-10-24T05:56:42.231Z,1003.72
2022-10-24T05:57:42.565Z,1003.76
2022-10-24T05:58:44.091Z,1003.84
2022-10-24T05:59:42.269Z,1003.89
2022-10-24T06:00:42.292Z,1003.85
2022-10-24T06:01:43.266Z,1003.87
2022-10-24T06:02:43.721Z,1003.87
2022-10-24T06:03:42.204Z,1003.88
2022-10-24T06:04:43.195Z,1003.80
2022-10-24T06:05:42.207Z,1003.79
2022-10-24T06:06:42.203Z,1003.78
2022-10-24T06:07:43.901Z,1003.77
2022-10-24T06:08:42.144Z,1003.72
2022-10-24T06:09:43.593Z,1003.72
2022-10-24T06:10:42.140Z,1003.68
2022-10-24T06:11:43.698Z,1003.65
2022-10-24T06:12:43.475Z,1003.59
2022-10-24T06:13:43.075Z,1003.59
2022-10-24T06:14:43.609Z,1003.52
2022-10-24T06:15:42.074Z,1003.48
2022-10-24T06:16:42.605Z,1003.51
2022-10-24T06:17:42.698Z,1003.49
2022-10-24T06:18:42.619Z,1003.55
2022-10-24T06:19:42.065Z,1003.57
2022-10-24T06:20:44.682Z,1003.56
2022-10-24T06:21:42.008Z,1003.57
2022-10-24T06:22:42.480Z,1003.65
2022-10-24T06:23:42.023Z,1003.64
2022-10-24T06:24:42.745Z,1003.63
2022-10-24T06:25:41.943Z,1003.66
2022-10-24T06:26:41.945Z,1003.71
2022-10-24T06:27:41.953Z,1003.68
2022-10-24T06:28:43.096Z,1003.70
2022-10-24T06:29:42.602Z,1003.72
2022-10-24T06:30:41.970Z,1003.71
2022-10-24T06:31:41.877Z,1003.72
2022-10-24T06:32:44.456Z,1003.68
2022-10-24T06:33:44.102Z,1003.65
2022-10-24T06:34:43.098Z,1003.64
2022-10-24T06:35:41.916Z,1003.70
2022-10-24T06:36:44.603Z,1003.70
2022-10-24T06:37:44.375Z,1003.71
2022-10-24T06:38:42.746Z,1003.71
2022-10-24T06:39:43.098Z,1003.70
2022-10-24T06:40:42.760Z,1003.71
2022-10-24T06:41:41.848Z,1003.74
2022-10-24T06:42:42.677Z,1003.77
2022-10-24T06:43:42.681Z,1003.76
2022-10-24T06:44:42.689Z,1003.77
2022-10-24T06:45:43.098Z,1003.73
2022-10-24T06:46:44.125Z,1003.76
2022-10-24T06:47:41.687Z,1003.73
2022-10-24T06:48:44.110Z,1003.79
2022-10-24T06:49:42.598Z,1003.78
2022-10-24T06:50:42.601Z,1003.77
2022-10-24T06:51:41.653Z,1003.83
2022-10-24T06:52:42.633Z,1003.84
2022-10-24T06:53:41.624Z,1003.87
2022-10-24T06:54:42.107Z,1003.85
2022-10-24T06:55:42.602Z,1003.84
2022-10-24T06:56:42.565Z,1003.88
2022-10-24T06:57:42.894Z,1003.86
2022-10-24T06:58:41.592Z,1003.93
2022-10-24T06:59:41.530Z,1003.94
2022-10-24T07:00:42.284Z,1003.97
2022-10-24T07:01:42.859Z,1004.02
2022-10-24T07:02:43.777Z,1004.03
2022-10-24T07:03:42.213Z,1004.07
2022-10-24T07:04:42.199Z,1004.14
2022-10-24T07:05:42.103Z,1004.18
2022-10-24T07:06:42.213Z,1004.19
2022-10-24T07:07:41.492Z,1004.19
2022-10-24T07:08:43.607Z,1004.24
2022-10-24T07:09:41.434Z,1004.27
2022-10-24T07:10:42.104Z,1004.27
2022-10-24T07:11:42.607Z,1004.24
2022-10-24T07:12:41.622Z,1004.22
2022-10-24T07:13:42.105Z,1004.27
2022-10-24T07:14:41.447Z,1004.24
2022-10-24T07:15:42.120Z,1004.22
2022-10-24T07:16:42.606Z,1004.22
2022-10-24T07:17:43.607Z,1004.22
2022-10-24T07:18:42.107Z,1004.21
2022-10-24T07:19:42.208Z,1004.18
2022-10-24T07:20:42.109Z,1004.16
2022-10-24T07:21:41.291Z,1004.15
2022-10-24T07:22:42.224Z,1004.18
2022-10-24T07:23:42.109Z,1004.16
2022-10-24T07:24:43.111Z,1004.15
2022-10-24T07:25:43.107Z,1004.17
2022-10-24T07:26:41.242Z,1004.12
2022-10-24T07:27:42.069Z,1004.10
2022-10-24T07:28:41.236Z,1004.13
2022-10-24T07:29:42.109Z,1004.10
2022-10-24T07:30:42.609Z,1004.10
2022-10-24T07:31:42.229Z,1004.10
2022-10-24T07:32:42.363Z,1004.10
2022-10-24T07:33:41.699Z,1004.09
2022-10-24T07:34:42.616Z,1004.13
2022-10-24T07:35:41.288Z,1004.18
2022-10-24T07:36:43.835Z,1004.20
2022-10-24T07:37:41.861Z,1004.17
2022-10-24T07:38:42.116Z,1004.16
2022-10-24T07:39:42.643Z,1004.22
2022-10-24T07:40:41.624Z,1004.23
2022-10-24T07:41:41.172Z,1004.23
2022-10-24T07:42:42.112Z,1004.25
2022-10-24T07:43:41.748Z,1004.33
2022-10-24T07:44:41.731Z,1004.30
2022-10-24T07:45:41.181Z,1004.30
2022-10-24T07:46:43.115Z,1004.26
2022-10-24T07:47:41.749Z,1004.24
2022-10-24T07:48:43.113Z,1004.19
2022-10-24T07:49:41.028Z,1004.28
2022-10-24T07:50:41.792Z,1004.21
2022-10-24T07:51:41.748Z,1004.28
2022-10-24T07:52:41.705Z,1004.29
2022-10-24T07:53:41.711Z,1004.29
2022-10-24T07:54:42.251Z,1004.34
2022-10-24T07:55:41.624Z,1004.34
2022-10-24T07:56:41.616Z,1004.37
2022-10-24T07:57:40.919Z,1004.36
2022-10-24T07:58:40.876Z,1004.28
2022-10-24T07:59:42.590Z,1004.22
2022-10-24T08:00:45.055Z,1004.21
2022-10-24T08:01:41.818Z,1004.25
2022-10-24T08:02:41.670Z,1004.24
2022-10-24T08:03:40.831Z,1004.22
2022-10-24T08:04:41.740Z,1004.23
2022-10-24T08:05:41.620Z,1004.17
2022-10-24T08:06:41.632Z,1004.19
2022-10-24T08:07:41.716Z,1004.18
2022-10-24T08:08:41.737Z,1004.13
2022-10-24T08:09:41.631Z,1004.13
2022-10-24T08:10:40.798Z,1004.15
2022-10-24T08:11:40.801Z,1004.16
2022-10-24T08:12:41.792Z,1004.17
2022-10-24T08:13:41.644Z,1004.16
2022-10-24T08:14:41.725Z,1004.21
2022-10-24T08:15:42.241Z,1004.13
2022-10-24T08:16:41.631Z,1004.12
2022-10-24T08:17:41.211Z,1004.10
2022-10-24T08:18:40.717Z,1004.11
2022-10-24T08:19:43.599Z,1004.12
2022-10-24T08:20:41.247Z,1004.17
2022-10-24T08:21:43.133Z,1004.17
2022-10-24T08:22:40.630Z,1004.20
2022-10-24T08:23:40.664Z,1004.18
2022-10-24T08:24:41.125Z,1004.24
2022-10-24T08:25:42.123Z,1004.20
2022-10-24T08:26:40.591Z,1004.20
2022-10-24T08:27:40.694Z,1004.21
2022-10-24T08:28:40.587Z,1004.20
2022-10-24T08:29:40.595Z,1004.20
2022-10-24T08:30:41.218Z,1004.20
2022-10-24T08:31:41.538Z,1004.20
2022-10-24T08:32:42.264Z,1004.18
2022-10-24T08:33:41.137Z,1004.16
2022-10-24T08:34:40.532Z,1004.18
2022-10-24T08:35:40.550Z,1004.16
2022-10-24T08:36:40.545Z,1004.18
2022-10-24T08:37:42.128Z,1004.14
2022-10-24T08:38:41.303Z,1004.19
2022-10-24T08:39:41.193Z,1004.16
2022-10-24T08:40:42.129Z,1004.16
2022-10-24T08:41:40.451Z,1004.25
2022-10-24T08:42:40.520Z,1004.22
2022-10-24T08:43:40.389Z,1004.33
2022-10-24T08:44:40.345Z,1004.24
2022-10-24T08:45:41.636Z,1004.19
2022-10-24T08:46:41.223Z,1004.21
2022-10-24T08:48:40.334Z,1004.20
2022-10-24T08:49:44.151Z,1004.18
2022-10-24T08:50:40.349Z,1004.20
2022-10-24T08:51:41.135Z,1004.18
2022-10-24T08:52:41.131Z,1004.21
2022-10-24T08:53:43.639Z,1004.08
2022-10-24T08:54:41.260Z,1004.10
2022-10-24T08:55:50.480Z,1004.09
2022-10-24T08:56:42.132Z,1004.10
2022-10-24T08:57:42.149Z,1004.10
2022-10-24T08:58:41.633Z,1004.06
2022-10-24T08:59:41.148Z,1004.06
2022-10-24T09:00:41.638Z,1004.01
2022-10-24T09:01:40.845Z,1003.97
2022-10-24T09:02:41.258Z,1003.94
2022-10-24T09:03:56.949Z,1003.95
2022-10-24T09:04:41.173Z,1003.95
2022-10-24T09:05:40.131Z,1003.96
2022-10-24T09:06:40.755Z,1004.00
2022-10-24T09:07:40.759Z,1004.00
2022-10-24T09:08:40.152Z,1003.99
2022-10-24T09:09:40.241Z,1003.99
2022-10-24T09:10:40.174Z,1003.99
2022-10-24T09:11:40.145Z,1004.05
2022-10-24T09:12:40.639Z,1004.04
2022-10-24T09:13:41.640Z,1004.09
2022-10-24T09:14:41.636Z,1004.04
2022-10-24T09:15:40.092Z,1004.08
2022-10-24T09:16:40.639Z,1004.10
2022-10-24T09:17:40.078Z,1004.01
2022-10-24T09:18:40.728Z,1004.06
2022-10-24T09:19:40.117Z,1004.06
2022-10-24T09:20:40.001Z,1004.09
2022-10-24T09:21:40.759Z,1004.06
2022-10-24T09:22:43.527Z,1004.07
2022-10-24T09:23:42.142Z,1004.09
2022-10-24T09:24:39.985Z,1004.09
2022-10-24T09:25:39.953Z,1004.05
2022-10-24T09:26:40.677Z,1004.04
2022-10-24T09:27:41.644Z,1004.06
2022-10-24T09:28:40.646Z,1004.11
2022-10-24T09:29:41.744Z,1004.11
2022-10-24T09:30:39.933Z,1004.04
2022-10-24T09:31:41.662Z,1004.02
2022-10-24T09:32:39.894Z,1004.04
2022-10-24T09:33:40.645Z,1004.02
2022-10-24T09:34:40.754Z,1004.03
2022-10-24T09:35:39.912Z,1003.99
2022-10-24T09:36:42.284Z,1004.00
2022-10-24T09:37:44.342Z,1003.95
2022-10-24T09:38:42.146Z,1003.96
2022-10-24T09:39:40.646Z,1003.98
2022-10-24T09:40:39.881Z,1003.99
2022-10-24T09:41:40.647Z,1004.03
2022-10-24T09:42:41.232Z,1003.97
2022-10-24T09:43:40.747Z,1004.00
2022-10-24T09:44:41.659Z,1004.00
2022-10-24T09:45:42.685Z,1004.04
2022-10-24T09:46:41.150Z,1004.03
2022-10-24T09:47:40.653Z,1004.05
2022-10-24T09:48:41.172Z,1004.06
2022-10-24T09:49:41.650Z,1004.10
2022-10-24T09:50:40.649Z,1004.10
2022-10-24T09:51:39.710Z,1004.11
2022-10-24T09:52:41.155Z,1004.11
2022-10-24T09:53:44.151Z,1004.16
2022-10-24T09:54:39.670Z,1004.17
2022-10-24T09:55:41.652Z,1004.19
2022-10-24T09:56:41.153Z,1004.21
2022-10-24T09:57:40.657Z,1004.16
2022-10-24T09:58:40.657Z,1004.20
2022-10-24T09:59:39.607Z,1004.14
2022-10-24T10:00:39.634Z,1004.11
2022-10-24T10:01:41.215Z,1004.14
2022-10-24T10:02:41.156Z,1004.10
2022-10-24T10:03:39.604Z,1004.11
2022-10-24T10:04:40.154Z,1004.12
2022-10-24T10:05:40.656Z,1004.13
2022-10-24T10:06:40.656Z,1004.09
2022-10-24T10:07:40.177Z,1004.07
2022-10-24T10:08:41.654Z,1004.00
2022-10-24T10:09:39.500Z,1004.00
2022-10-24T10:10:41.157Z,1004.08
2022-10-24T10:11:49.430Z,1004.03
2022-10-24T10:12:39.746Z,1004.02
2022-10-24T10:13:39.521Z,1004.02
2022-10-24T10:14:41.159Z,1004.07
2022-10-24T10:15:40.248Z,1004.04
2022-10-24T10:16:39.413Z,1004.00
2022-10-24T10:17:39.522Z,1003.89
2022-10-24T10:18:40.165Z,1003.94
2022-10-24T10:19:39.430Z,1003.92
2022-10-24T10:20:40.287Z,1003.96
2022-10-24T10:21:39.392Z,1003.97
2022-10-24T10:22:40.106Z,1004.03
2022-10-24T10:23:41.161Z,1003.94
2022-10-24T10:24:41.162Z,1003.98
2022-10-24T10:25:41.166Z,1004.01
2022-10-24T10:26:40.299Z,1004.03
2022-10-24T10:27:40.279Z,1004.00
2022-10-24T10:28:39.419Z,1004.03
2022-10-24T10:29:39.346Z,1003.98
2022-10-24T10:30:40.665Z,1003.97
2022-10-24T10:31:39.238Z,1004.01
2022-10-24T10:32:39.350Z,1003.99
2022-10-24T10:33:39.323Z,1003.98
2022-10-24T10:34:40.685Z,1003.99
2022-10-24T10:35:39.166Z,1004.02
2022-10-24T10:36:41.183Z,1004.00
2022-10-24T10:37:39.666Z,1003.99
2022-10-24T10:38:40.166Z,1004.03
2022-10-24T10:39:44.353Z,1003.94
2022-10-24T10:40:39.777Z,1003.98
2022-10-24T10:41:39.145Z,1003.97
2022-10-24T10:42:40.666Z,1003.91
2022-10-24T10:43:40.666Z,1003.95
2022-10-24T10:44:40.601Z,1003.94
2022-10-24T10:45:39.708Z,1003.97
2022-10-24T10:46:39.820Z,1003.96
2022-10-24T10:47:40.667Z,1003.88
2022-10-24T10:48:39.161Z,1003.91
2022-10-24T10:49:40.667Z,1003.93
2022-10-24T10:50:39.064Z,1003.87
2022-10-24T10:51:39.035Z,1003.90
2022-10-24T10:52:38.990Z,1003.93
2022-10-24T10:53:39.036Z,1003.93
2022-10-24T10:54:40.670Z,1003.96
2022-10-24T10:55:40.174Z,1003.96
2022-10-24T10:56:38.999Z,1003.96
2022-10-24T10:57:39.791Z,1003.94
2022-10-24T10:58:40.673Z,1003.89
2022-10-24T10:59:38.924Z,1003.91
2022-10-24T11:00:39.761Z,1003.93
2022-10-24T11:01:39.027Z,1003.90
2022-10-24T11:02:38.996Z,1003.89
2022-10-24T11:03:40.677Z,1003.83
2022-10-24T11:04:38.916Z,1003.88
2022-10-24T11:05:40.170Z,1003.99
2022-10-24T11:06:38.860Z,1003.96
2022-10-24T11:07:39.676Z,1003.95
2022-10-24T11:08:39.727Z,1003.94
2022-10-24T11:09:38.848Z,1003.88
2022-10-24T11:10:38.909Z,1003.91
2022-10-24T11:11:40.674Z,1003.86
2022-10-24T11:12:41.331Z,1003.90
2022-10-24T11:13:39.675Z,1003.87
2022-10-24T11:14:39.676Z,1003.90
2022-10-24T11:15:39.261Z,1003.84
2022-10-24T11:16:38.795Z,1003.87
2022-10-24T11:17:40.283Z,1003.86
2022-10-24T11:18:40.310Z,1003.90
2022-10-24T11:19:39.222Z,1003.90
2022-10-24T11:20:39.254Z,1003.89
2022-10-24T11:21:38.716Z,1003.92
2022-10-24T11:22:39.197Z,1003.95
2022-10-24T11:23:39.308Z,1003.95
2022-10-24T11:24:38.643Z,1003.96
2022-10-24T11:25:39.682Z,1003.88
2022-10-24T11:26:38.625Z,1003.94
2022-10-24T11:27:40.183Z,1003.81
2022-10-24T11:28:39.181Z,1003.76
2022-10-24T11:29:40.180Z,1003.89
2022-10-24T11:30:42.265Z,1003.81
2022-10-24T11:31:39.183Z,1003.87
2022-10-24T11:32:39.182Z,1003.88
2022-10-24T11:33:38.550Z,1003.92
2022-10-24T11:34:40.203Z,1003.88
2022-10-24T11:35:39.684Z,1003.93
2022-10-24T11:36:39.193Z,1003.84
2022-10-24T11:37:39.807Z,1003.93
2022-10-24T11:38:40.186Z,1003.91
2022-10-24T11:39:38.487Z,1003.85
2022-10-24T11:40:38.438Z,1003.96
2022-10-24T11:41:39.183Z,1003.94
2022-10-24T11:42:40.690Z,1003.98
2022-10-24T11:43:39.296Z,1003.97
2022-10-24T11:44:42.683Z,1003.89
2022-10-24T11:45:40.188Z,1003.95
2022-10-24T11:46:39.384Z,1003.88
2022-10-24T11:47:39.197Z,1003.79
2022-10-24T11:48:38.486Z,1003.80
2022-10-24T11:49:38.399Z,1003.77
2022-10-24T11:50:38.406Z,1003.74
2022-10-24T11:51:39.208Z,1003.72
2022-10-24T11:52:39.192Z,1003.74
2022-10-24T11:53:40.689Z,1003.74
2022-10-24T11:54:38.305Z,1003.67
2022-10-24T11:55:39.208Z,1003.64
2022-10-24T11:56:41.289Z,1003.66
2022-10-24T11:57:38.232Z,1003.73
2022-10-24T11:58:38.301Z,1003.76
2022-10-24T11:59:41.005Z,1003.71
2022-10-24T12:00:38.239Z,1003.70
2022-10-24T12:01:38.281Z,1003.69
2022-10-24T12:02:40.721Z,1003.69
2022-10-24T12:03:38.231Z,1003.70
2022-10-24T12:04:39.199Z,1003.74
2022-10-24T12:06:38.188Z,1003.74
2022-10-24T12:07:38.815Z,1003.77
2022-10-24T12:08:39.692Z,1003.74
2022-10-24T12:09:39.195Z,1003.74
2022-10-24T12:10:38.116Z,1003.71
2022-10-24T12:11:38.728Z,1003.67